Garderen, Netherlands
Current Conditions -  °F | °C
As of 1:25 PM on Saturday 25 Oct 2014 (Local Time) from EHDL Reporting Station
Haze Haze  
Wind Chill: 57°   Ceiling: 1400
Heat Index: 57°   Visibility: 4mi
Dew Point: 55°   Wind: 7mph
Humidity: 94%   Direction: 220°SW
Pressure: 30.06"   Gusts: NA
Location:  52.23°N, 5.71°E
Report Text: EHDL 251125Z AUTO 22006KT 6000 BR FEW007 SCT011 BKN014 14/13 Q1018 GRN
Loading
Personal Weather Stations






























Interactive Weather Map
Tropical Storm Tracking
New forecast layout! Learn more

10-Day Weather Forecast

Advertisements
Track Severe Weather on mobile